Time;durP1;ratioP1;P1;durP2;ratioP2;P2;SDS_P1;SDS_P2;PMS_P1;PMS_P2;Temp;Humidity;BMP_temperature;BMP_pressure;BME280_temperature;BME280_humidity;BME280_pressure;Samples;Min_cycle;Max_cycle;Signal;HPM_P1;HPM_P2
2024/01/23 00:02:05;;;;;;;6.88;2.40;;;;;;;17.35;50.52;101333.69;10408811;28;20036;-52
2024/01/23 00:07:06;;;;;;;5.27;2.93;;;;;;;17.38;51.52;101340.38;10411354;28;20491;-53
2024/01/23 00:12:07;;;;;;;5.93;2.03;;;;;;;17.38;51.94;101349.22;10417771;28;20398;-52
2024/01/23 00:17:08;;;;;;;6.10;2.33;;;;;;;17.36;50.83;101354.06;10407955;28;20035;-52
2024/01/23 00:22:08;;;;;;;4.15;2.00;;;;;;;17.37;50.27;101370.97;10408387;28;20026;-54
2024/01/23 00:27:08;;;;;;;5.13;2.33;;;;;;;17.37;51.11;101384.34;10408026;28;20511;-50
2024/01/23 00:32:08;;;;;;;4.73;2.50;;;;;;;17.37;51.22;101397.75;10432874;28;20298;-50
2024/01/23 00:37:09;;;;;;;9.37;3.20;;;;;;;17.37;50.11;101403.94;10417326;28;20771;-50
2024/01/23 00:42:09;;;;;;;5.45;2.42;;;;;;;17.37;51.10;101401.25;10407922;28;20284;-49
2024/01/23 00:47:12;;;;;;;6.57;2.00;;;;;;;17.38;50.50;101407.41;10407746;28;20021;-49
2024/01/23 00:52:12;;;;;;;5.13;2.45;;;;;;;17.38;51.12;101418.94;10407744;28;20291;-51
2024/01/23 00:57:13;;;;;;;5.10;1.80;;;;;;;17.40;50.57;101451.63;10407261;28;20083;-51
2024/01/23 01:02:13;;;;;;;3.60;1.60;;;;;;;17.40;51.04;101454.31;10410980;28;20318;-50
2024/01/23 01:07:14;;;;;;;7.72;2.58;;;;;;;17.42;50.37;101470.16;10418889;28;20013;-48
2024/01/23 01:12:14;;;;;;;3.92;1.73;;;;;;;17.42;50.11;101479.00;10422579;28;20057;-50
2024/01/23 01:17:14;;;;;;;5.23;2.40;;;;;;;17.48;50.45;101477.09;10412959;28;20025;-49
2024/01/23 01:22:15;;;;;;;4.18;1.60;;;;;;;17.54;50.55;101478.72;10414308;28;20282;-51
2024/01/23 01:27:15;;;;;;;4.63;2.00;;;;;;;17.55;50.27;101499.09;10414089;28;20024;-52
2024/01/23 01:32:15;;;;;;;5.23;1.73;;;;;;;17.58;50.05;101514.66;10440521;28;20280;-51
2024/01/23 01:37:16;;;;;;;4.83;2.17;;;;;;;17.56;50.64;101521.34;10412064;28;20284;-52
2024/01/23 01:42:16;;;;;;;6.60;2.97;;;;;;;17.54;49.53;101529.66;10413807;28;20284;-50
2024/01/23 01:47:17;;;;;;;3.47;1.70;;;;;;;17.54;50.74;101510.91;10424020;28;20708;-50
2024/01/23 01:52:19;;;;;;;5.63;2.17;;;;;;;17.51;49.52;101514.91;10412187;28;20071;-54
2024/01/23 01:57:21;;;;;;;4.57;2.00;;;;;;;17.50;49.78;101529.38;10412654;28;20056;-49
2024/01/23 02:02:22;;;;;;;4.90;1.85;;;;;;;17.49;50.61;101551.09;10411812;28;20021;-53
2024/01/23 02:07:22;;;;;;;5.28;1.80;;;;;;;17.47;50.40;101567.47;10406426;28;20028;-52
2024/01/23 02:12:22;;;;;;;4.18;1.55;;;;;;;17.49;50.05;101568.00;10444418;28;20052;-50
2024/01/23 02:17:23;;;;;;;4.63;1.67;;;;;;;17.48;50.08;101579.78;10412036;28;20031;-52
2024/01/23 02:22:23;;;;;;;3.80;1.63;;;;;;;17.47;49.82;101594.28;10412193;28;20033;-52
2024/01/23 02:27:23;;;;;;;2.93;1.33;;;;;;;17.49;50.23;101613.56;10410434;28;20268;-52
2024/01/23 02:32:24;;;;;;;3.80;2.50;;;;;;;17.47;50.29;101613.03;10449288;28;20287;-50
2024/01/23 02:37:24;;;;;;;3.50;1.50;;;;;;;17.48;50.72;101611.16;10409902;28;20290;-53
2024/01/23 02:42:24;;;;;;;5.68;2.63;;;;;;;17.44;50.82;101616.25;10411248;28;20845;-49
2024/01/23 02:47:25;;;;;;;4.00;1.57;;;;;;;17.47;50.65;101637.19;10410642;28;20037;-53
2024/01/23 02:52:27;;;;;;;2.90;1.10;;;;;;;17.53;50.46;101646.84;10410917;28;20283;-50
2024/01/23 02:57:28;;;;;;;5.82;1.10;;;;;;;17.53;49.80;101648.72;10410557;28;20026;-51
2024/01/23 03:02:28;;;;;;;4.37;1.73;;;;;;;17.52;48.95;101655.97;10410508;28;20033;-52
2024/01/23 03:07:29;;;;;;;2.72;1.58;;;;;;;17.58;49.24;101672.06;10416436;28;20286;-52
2024/01/23 03:12:29;;;;;;;3.67;1.60;;;;;;;17.54;48.94;101686.00;10416051;28;20456;-54
2024/01/23 03:17:29;;;;;;;3.20;1.65;;;;;;;17.55;49.67;101694.84;10408199;28;20301;-51
2024/01/23 03:22:30;;;;;;;3.90;1.50;;;;;;;17.52;49.99;101688.16;10409807;28;20025;-53
2024/01/23 03:27:31;;;;;;;3.28;1.50;;;;;;;17.53;49.16;101699.69;10408922;28;20321;-51
2024/01/23 03:32:31;;;;;;;3.08;1.55;;;;;;;17.53;50.13;101716.56;10435058;28;20255;-51
2024/01/23 03:37:32;;;;;;;3.33;1.40;;;;;;;17.54;49.98;101709.34;10407600;28;20106;-53
2024/01/23 03:42:32;;;;;;;5.25;1.17;;;;;;;17.54;49.76;101734.28;10409297;28;20018;-50
2024/01/23 03:47:32;;;;;;;6.63;2.00;;;;;;;17.55;48.89;101751.16;10408761;28;20025;-52
2024/01/23 03:52:33;;;;;;;5.10;1.63;;;;;;;17.53;50.38;101761.34;10408994;28;20280;-50
2024/01/23 03:57:33;;;;;;;3.77;1.60;;;;;;;17.52;49.32;101763.22;10408417;28;20284;-51
2024/01/23 04:02:37;;;;;;;2.97;1.30;;;;;;;17.52;49.22;101757.03;10408705;28;20796;-51
2024/01/23 04:07:37;;;;;;;5.53;2.00;;;;;;;17.52;49.15;101768.59;10415630;28;20024;-47
2024/01/23 04:12:37;;;;;;;3.63;1.45;;;;;;;17.53;50.25;101774.75;10413248;28;20045;-48
2024/01/23 04:17:40;;;;;;;3.72;1.67;;;;;;;17.49;50.41;101790.53;10408115;28;20033;-50
2024/01/23 04:22:40;;;;;;;4.07;1.75;;;;;;;17.52;49.91;101795.41;10408386;28;20033;-49
2024/01/23 04:27:40;;;;;;;3.23;1.60;;;;;;;17.53;50.32;101813.09;10411698;28;20025;-52
2024/01/23 04:32:41;;;;;;;3.17;1.60;;;;;;;17.53;49.87;101817.66;10424322;28;20291;-55
2024/01/23 04:37:42;;;;;;;4.85;2.35;;;;;;;17.57;49.49;101828.66;10427773;28;20302;-55
2024/01/23 04:42:42;;;;;;;3.40;1.85;;;;;;;17.58;50.89;101860.59;10431852;28;20112;-55
2024/01/23 04:47:42;;;;;;;4.38;2.97;;;;;;;17.56;50.42;101854.69;10431727;28;20036;-56
2024/01/23 04:52:43;;;;;;;6.18;2.67;;;;;;;17.60;50.26;101868.38;10431472;28;20063;-56
2024/01/23 04:57:43;;;;;;;6.43;3.63;;;;;;;17.65;49.77;101873.78;10430155;28;20025;-56
2024/01/23 05:02:43;;;;;;;4.90;2.70;;;;;;;17.67;51.45;101895.78;10430839;28;20624;-54
2024/01/23 05:07:43;;;;;;;6.20;2.73;;;;;;;17.66;50.72;101903.00;10430734;28;20284;-56
2024/01/23 05:12:44;;;;;;;6.07;3.07;;;;;;;17.61;51.35;101908.34;10455793;28;20304;-57
2024/01/23 05:17:44;;;;;;;5.00;2.63;;;;;;;17.53;51.23;101923.06;10429850;28;20292;-54
2024/01/23 05:22:45;;;;;;;7.07;2.90;;;;;;;17.57;51.06;101915.28;10426083;28;20033;-54
2024/01/23 05:27:45;;;;;;;5.90;2.78;;;;;;;17.53;51.17;101923.06;10428891;28;20644;-54
2024/01/23 05:32:45;;;;;;;3.60;2.53;;;;;;;17.54;51.22;101930.03;10433042;28;20460;-53
2024/01/23 05:37:46;;;;;;;5.65;2.20;;;;;;;17.53;51.38;101947.19;10426286;28;20287;-53
2024/01/23 05:42:46;;;;;;;5.50;2.75;;;;;;;17.55;50.42;101965.69;10416168;28;20037;-53
2024/01/23 05:47:46;;;;;;;4.00;2.73;;;;;;;17.52;49.82;101967.03;10424013;28;20112;-55
2024/01/23 05:52:47;;;;;;;3.70;2.20;;;;;;;17.50;50.56;101989.78;10417825;28;20652;-55
2024/01/23 05:57:48;;;;;;;4.85;2.42;;;;;;;17.51;50.08;101991.41;10409781;28;20291;-55
2024/01/23 06:02:48;;;;;;;3.92;2.45;;;;;;;17.48;50.34;101999.97;10410056;28;20017;-56
2024/01/23 06:07:49;;;;;;;4.90;2.38;;;;;;;17.51;50.31;102002.94;10419099;28;20033;-55
2024/01/23 06:12:49;;;;;;;6.18;2.40;;;;;;;17.67;49.86;101997.69;10416632;28;20077;-54
2024/01/23 06:17:50;;;;;;;7.90;3.23;;;;;;;17.69;52.20;102017.84;10409875;28;20041;-54
2024/01/23 06:22:50;;;;;;;10.13;2.93;;;;;;;17.69;51.32;102031.28;10408879;28;20025;-53
2024/01/23 06:27:50;;;;;;;11.20;2.03;;;;;;;17.64;51.52;102025.84;10407797;28;20268;-55
2024/01/23 06:32:51;;;;;;;7.17;2.33;;;;;;;17.57;52.30;102041.34;10438830;28;20694;-54
2024/01/23 06:37:51;;;;;;;11.05;2.40;;;;;;;17.58;51.35;102048.31;10408623;28;20303;-56
2024/01/23 06:42:51;;;;;;;11.17;2.77;;;;;;;17.56;51.27;102060.38;10408469;28;20083;-54
2024/01/23 06:47:52;;;;;;;12.53;3.20;;;;;;;17.58;52.33;102071.66;10408695;28;20272;-55
2024/01/23 06:52:52;;;;;;;12.37;3.13;;;;;;;17.50;51.82;102071.03;10407891;28;20272;-55
2024/01/23 06:57:52;;;;;;;23.47;3.87;;;;;;;17.51;51.71;102075.34;10407799;28;20288;-55
2024/01/23 07:02:53;;;;;;;12.90;3.00;;;;;;;17.51;52.42;102083.38;10405405;28;20280;-56
2024/01/23 07:07:53;;;;;;;14.43;3.08;;;;;;;17.43;51.28;102081.19;10416864;28;20303;-57
2024/01/23 07:12:54;;;;;;;44.97;4.78;;;;;;;17.32;53.17;102108.16;10409779;28;20053;-57
2024/01/23 07:17:54;;;;;;;16.47;3.37;;;;;;;17.33;52.57;102105.22;10404751;28;20037;-56
2024/01/23 07:22:55;;;;;;;14.17;2.77;;;;;;;17.32;52.44;102106.28;10405053;28;20282;-56
2024/01/23 07:27:55;;;;;;;9.88;2.15;;;;;;;17.32;51.41;102116.19;10410735;28;20750;-56
2024/01/23 07:32:55;;;;;;;10.77;2.03;;;;;;;17.32;51.92;102121.56;10427452;28;20033;-57
2024/01/23 07:37:57;;;;;;;17.50;3.60;;;;;;;17.38;51.90;102133.94;10423934;28;20280;-56
2024/01/23 07:42:57;;;;;;;16.08;2.60;;;;;;;17.33;51.99;102139.25;10435462;28;20284;-57
2024/01/23 07:47:57;;;;;;;10.20;2.23;;;;;;;17.29;51.12;102149.69;10428690;28;20776;-57
2024/01/23 07:52:58;;;;;;;10.38;2.03;;;;;;;17.29;50.92;102147.00;10427010;28;20283;-57
2024/01/23 07:57:58;;;;;;;7.73;2.13;;;;;;;17.31;51.03;102162.81;10441120;28;20033;-56
2024/01/23 08:02:58;;;;;;;7.63;2.00;;;;;;;17.32;51.53;102175.16;10432815;28;20310;-57
2024/01/23 08:07:59;;;;;;;11.17;3.43;;;;;;;17.31;50.76;102187.75;10432617;28;20294;-57
2024/01/23 08:12:59;;;;;;;8.93;1.90;;;;;;;17.34;50.59;102189.13;10429002;28;20341;-55
2024/01/23 08:18:03;;;;;;;4.60;1.60;;;;;;;17.31;50.30;102193.13;10437638;28;20426;-55
2024/01/23 08:23:04;;;;;;;7.10;2.67;;;;;;;17.30;50.55;102180.78;10432274;28;20329;-55
2024/01/23 08:28:04;;;;;;;7.28;1.92;;;;;;;17.29;50.88;102189.88;10434384;28;20492;-56
2024/01/23 08:33:05;;;;;;;7.38;2.53;;;;;;;17.29;50.17;102203.28;10446686;28;20022;-56
2024/01/23 08:38:05;;;;;;;7.30;2.13;;;;;;;17.27;51.21;102218.78;10436465;28;20029;-57
2024/01/23 08:43:05;;;;;;;5.18;1.75;;;;;;;17.27;51.49;102226.84;10430314;28;20036;-56
2024/01/23 08:48:06;;;;;;;5.53;1.60;;;;;;;17.27;50.46;102239.44;10436044;28;20045;-56
2024/01/23 08:53:06;;;;;;;4.10;1.73;;;;;;;17.24;51.12;102252.28;10437581;28;20288;-57
2024/01/23 08:58:08;;;;;;;4.53;1.40;;;;;;;17.21;50.52;102244.75;10434082;28;20032;-55
2024/01/23 09:03:08;;;;;;;5.18;2.17;;;;;;;17.17;50.97;102249.00;10429776;28;20030;-57
2024/01/23 09:08:09;;;;;;;3.80;1.52;;;;;;;17.17;51.26;102246.31;10429180;28;20017;-56
2024/01/23 09:13:09;;;;;;;5.82;1.60;;;;;;;17.17;50.19;102246.31;10444651;28;20053;-56
2024/01/23 09:18:09;;;;;;;5.70;2.40;;;;;;;17.17;50.70;102246.31;10437178;28;20113;-57
2024/01/23 09:23:10;;;;;;;5.20;1.80;;;;;;;17.16;50.99;102255.38;10433608;28;20279;-56
2024/01/23 09:28:11;;;;;;;4.68;1.40;;;;;;;17.16;50.31;102263.41;10414181;28;20744;-56
2024/01/23 09:33:11;;;;;;;3.97;1.42;;;;;;;17.15;50.26;102261.81;10421778;28;20032;-56
2024/01/23 09:38:12;;;;;;;8.03;1.30;;;;;;;17.11;52.25;102254.53;10421494;28;20024;-57
2024/01/23 09:43:12;;;;;;;4.28;1.80;;;;;;;17.04;52.52;102253.88;10418781;28;20311;-57
2024/01/23 09:48:14;;;;;;;3.72;1.48;;;;;;;17.06;51.78;102282.06;10413159;28;20021;-57
2024/01/23 09:53:16;;;;;;;4.13;1.40;;;;;;;17.10;52.11;102277.03;10425382;28;20025;-57
2024/01/23 09:58:16;;;;;;;4.22;1.92;;;;;;;17.09;52.29;102283.44;10410728;28;20065;-55
2024/01/23 10:03:16;;;;;;;7.07;1.73;;;;;;;17.08;51.91;102281.81;10411767;28;20049;-56
2024/01/23 10:08:17;;;;;;;4.28;1.60;;;;;;;17.06;51.33;102284.75;10424073;28;20067;-58
2024/01/23 10:13:17;;;;;;;4.23;1.50;;;;;;;17.06;52.34;102300.03;10410788;28;20125;-57
2024/01/23 10:18:17;;;;;;;6.72;1.85;;;;;;;17.02;52.83;102296.19;10411547;28;20281;-57
2024/01/23 10:23:18;;;;;;;4.25;1.75;;;;;;;17.01;52.50;102298.06;10411093;28;20021;-57
2024/01/23 10:28:22;;;;;;;6.88;1.85;;;;;;;16.98;52.80;102295.06;10410791;28;20344;-56
2024/01/23 10:33:22;;;;;;;7.30;1.83;;;;;;;17.01;52.78;102273.94;10434081;28;20037;-55
2024/01/23 10:38:23;;;;;;;3.43;1.33;;;;;;;17.01;52.51;102287.34;10410392;28;20025;-55
2024/01/23 10:43:26;;;;;;;4.43;2.55;;;;;;;17.01;52.21;102299.94;10409927;28;20276;-56
2024/01/23 10:48:26;;;;;;;4.78;1.10;;;;;;;17.00;52.09;102277.69;10410274;28;20353;-55
2024/01/23 10:53:44;;;;;;;4.72;1.55;;;;;;;17.00;52.97;102299.13;10408453;28;20080;-56
2024/01/23 10:58:47;;;;;;;4.45;1.20;;;;;;;16.98;53.39;102282.47;10408422;28;20369;-57
2024/01/23 11:03:47;;;;;;;3.95;1.40;;;;;;;16.97;52.58;102272.00;10408004;28;20029;-56
2024/01/23 11:09:04;;;;;;;6.55;3.20;;;;;;;16.93;53.25;102264.47;10420268;28;20024;-57
2024/01/23 11:14:18;;;;;;;3.83;1.42;;;;;;;16.90;52.07;102259.59;10407360;28;20045;-57
2024/01/23 11:19:19;;;;;;;4.45;1.60;;;;;;;16.87;52.20;102243.19;10407824;28;20103;-56
2024/01/23 11:24:41;;;;;;;3.77;1.40;;;;;;;16.84;53.07;102249.88;10407133;28;20029;-57
2024/01/23 11:29:42;;;;;;;3.95;1.42;;;;;;;16.84;52.39;102230.31;10410292;28;20287;-56
2024/01/23 11:34:42;;;;;;;4.10;1.30;;;;;;;16.82;53.87;102240.47;10429917;28;20495;-57
2024/01/23 11:39:45;;;;;;;5.43;2.00;;;;;;;16.82;52.18;102233.25;10408331;28;20038;-57
2024/01/23 11:44:45;;;;;;;3.65;1.60;;;;;;;16.79;52.56;102208.78;10407525;28;20469;-56
2024/01/23 11:49:46;;;;;;;4.70;1.70;;;;;;;16.78;53.21;102207.97;10408118;28;20021;-56
2024/01/23 11:54:47;;;;;;;5.68;2.33;;;;;;;16.77;53.31;102202.88;10407519;28;20283;-57
2024/01/23 11:59:47;;;;;;;6.05;2.20;;;;;;;16.75;52.17;102189.72;10406346;28;20030;-54
2024/01/23 12:04:48;;;;;;;4.10;1.30;;;;;;;16.71;52.41;102180.59;10407756;28;20028;-57
2024/01/23 12:09:49;;;;;;;6.93;1.80;;;;;;;16.72;52.08;102166.13;10419613;28;20374;-57
2024/01/23 12:14:49;;;;;;;5.22;1.63;;;;;;;16.72;53.05;102170.69;10416078;28;20290;-57
2024/01/23 12:19:49;;;;;;;4.30;1.60;;;;;;;16.74;52.65;102160.53;10426500;28;20044;-57
2024/01/23 12:24:50;;;;;;;5.20;1.90;;;;;;;16.75;53.78;102148.75;10414399;28;20283;-57
2024/01/23 12:29:50;;;;;;;4.07;1.30;;;;;;;16.77;53.56;102142.06;10412393;28;20310;-56
2024/01/23 12:34:50;;;;;;;3.08;1.75;;;;;;;16.81;53.91;102135.19;10436607;28;20030;-57
2024/01/23 12:39:52;;;;;;;5.07;1.80;;;;;;;16.84;52.49;102129.31;10419093;28;20033;-56
2024/01/23 12:44:53;;;;;;;4.90;1.73;;;;;;;16.83;52.93;102133.06;10407495;28;20264;-55
2024/01/23 12:49:53;;;;;;;4.18;1.27;;;;;;;16.84;53.70;102121.28;10407782;28;20516;-57
2024/01/23 12:54:53;;;;;;;6.63;1.70;;;;;;;16.82;53.72;102114.56;10420180;28;20461;-56
2024/01/23 12:59:53;;;;;;;2.33;0.90;;;;;;;16.78;53.50;102111.56;10413381;28;20291;-56
2024/01/23 13:04:54;;;;;;;4.43;1.53;;;;;;;16.76;53.63;102096.78;10415014;28;20674;-56
2024/01/23 13:09:56;;;;;;;4.33;1.70;;;;;;;16.69;52.85;102083.56;10429165;28;20295;-57
2024/01/23 13:14:56;;;;;;;6.20;2.30;;;;;;;16.78;54.18;102076.72;10439678;28;20764;-56
2024/01/23 13:20:00;;;;;;;17.70;2.42;;;;;;;16.84;53.02;102088.34;10456029;28;20071;-56
2024/01/23 13:25:00;;;;;;;8.35;2.25;;;;;;;16.86;53.10;102092.38;10437985;28;20034;-57
2024/01/23 13:30:01;;;;;;;8.10;2.35;;;;;;;16.94;53.67;102093.81;10426309;28;20499;-55
2024/01/23 13:35:04;;;;;;;5.43;2.38;;;;;;;16.91;53.82;102071.00;10430956;28;20025;-56
2024/01/23 13:40:06;;;;;;;9.98;2.25;;;;;;;16.85;53.51;102061.28;10413792;28;20074;-57
2024/01/23 13:45:09;;;;;;;13.40;2.28;;;;;;;16.77;55.09;102053.69;10411944;28;20499;-56
2024/01/23 13:50:09;;;;;;;9.68;3.08;;;;;;;16.77;54.54;102050.19;10413500;28;20053;-57
2024/01/23 13:55:10;;;;;;;17.83;3.05;;;;;;;16.79;53.92;102050.75;10411327;28;20040;-57
2024/01/23 14:00:12;;;;;;;13.45;3.10;;;;;;;16.78;54.33;102049.94;10411624;28;20390;-57
2024/01/23 14:05:13;;;;;;;16.30;4.30;;;;;;;16.83;54.43;102041.19;10412459;28;20380;-57
2024/01/23 14:10:16;;;;;;;15.15;4.03;;;;;;;16.83;54.53;102038.50;10424391;28;20044;-56
2024/01/23 14:15:18;;;;;;;13.07;2.75;;;;;;;16.83;54.94;102028.59;10410876;28;20561;-56
2024/01/23 14:20:18;;;;;;;19.00;4.20;;;;;;;16.81;53.87;102017.31;10414561;28;20108;-57
2024/01/23 14:25:20;;;;;;;12.73;3.17;;;;;;;16.96;53.70;102008.63;10429024;28;20442;-57
2024/01/23 14:30:21;;;;;;;16.92;5.72;;;;;;;16.91;53.13;102004.00;10430212;28;20033;-56
2024/01/23 14:35:21;;;;;;;11.63;3.15;;;;;;;16.88;53.30;101991.13;10424932;28;20396;-56
2024/01/23 14:40:23;;;;;;;15.75;4.72;;;;;;;16.91;51.74;101973.72;10428458;28;20026;-56
2024/01/23 14:45:23;;;;;;;24.30;6.13;;;;;;;16.93;53.05;101964.41;10425666;28;20112;-56
2024/01/23 14:50:23;;;;;;;17.90;6.37;;;;;;;17.02;53.29;101948.66;10425755;28;20023;-56
2024/01/23 14:55:24;;;;;;;15.90;4.57;;;;;;;17.01;52.56;101922.91;10425277;28;20276;-56
2024/01/23 15:00:24;;;;;;;18.67;5.75;;;;;;;17.02;51.92;101923.72;10425672;28;20296;-56
2024/01/23 15:05:24;;;;;;;12.63;5.67;;;;;;;17.01;52.54;101924.78;10423807;28;20048;-56
2024/01/23 15:10:24;;;;;;;24.57;7.70;;;;;;;17.01;51.29;101914.88;10426362;28;20292;-55
2024/01/23 15:15:25;;;;;;;26.65;6.03;;;;;;;17.03;51.86;101894.00;10416071;28;20276;-55
2024/01/23 15:20:25;;;;;;;27.43;7.43;;;;;;;17.07;52.04;101872.88;10411197;28;20029;-55
2024/01/23 15:25:25;;;;;;;31.63;8.67;;;;;;;17.11;51.49;101866.72;10420831;28;20283;-56
2024/01/23 15:30:29;;;;;;;27.48;7.28;;;;;;;17.13;50.91;101848.53;10451765;28;21018;-57
2024/01/23 15:35:31;;;;;;;29.80;7.80;;;;;;;17.22;51.81;101838.13;10433886;28;20052;-57
2024/01/23 15:40:32;;;;;;;28.33;6.05;;;;;;;17.21;51.65;101828.47;10422526;28;20471;-57
2024/01/23 15:45:32;;;;;;;26.88;6.45;;;;;;;17.12;52.10;101836.19;10423829;28;20037;-57
2024/01/23 15:50:32;;;;;;;21.33;6.00;;;;;;;17.24;50.85;101819.91;10432576;28;20028;-56
2024/01/23 15:55:33;;;;;;;19.33;5.13;;;;;;;17.24;51.14;101806.50;10440575;28;20350;-57
2024/01/23 16:00:33;;;;;;;20.47;6.07;;;;;;;17.27;51.26;101789.09;10448562;28;20295;-57
2024/01/23 16:05:34;;;;;;;21.15;7.10;;;;;;;17.27;50.63;101773.81;10448006;28;20689;-56
2024/01/23 16:10:34;;;;;;;18.75;5.55;;;;;;;17.28;51.09;101759.34;10430357;28;20045;-57
2024/01/23 16:15:34;;;;;;;14.13;4.20;;;;;;;17.31;51.35;101733.91;10408621;28;20692;-57
2024/01/23 16:20:35;;;;;;;11.83;4.43;;;;;;;17.29;50.84;101723.47;10414646;28;20025;-57
2024/01/23 16:25:37;;;;;;;9.83;4.07;;;;;;;17.30;50.99;101708.19;10449329;28;20298;-57
2024/01/23 16:30:37;;;;;;;16.92;4.55;;;;;;;17.31;50.11;101699.06;10445293;28;20308;-57
2024/01/23 16:35:37;;;;;;;11.47;3.70;;;;;;;17.29;50.66;101695.84;10425922;28;20423;-56
2024/01/23 16:40:38;;;;;;;13.10;3.58;;;;;;;17.31;49.99;101694.50;10450708;28;20364;-56
2024/01/23 16:45:38;;;;;;;13.77;4.90;;;;;;;17.32;50.14;101687.28;10457071;28;20029;-57
2024/01/23 16:50:39;;;;;;;10.30;3.63;;;;;;;17.31;50.78;101678.44;10456696;28;20096;-57
2024/01/23 16:55:39;;;;;;;10.70;4.22;;;;;;;17.31;50.02;101674.94;10454987;28;20307;-57
2024/01/23 17:00:39;;;;;;;8.57;2.87;;;;;;;17.31;49.95;101680.31;10431408;28;20025;-58
2024/01/23 17:05:40;;;;;;;9.67;3.67;;;;;;;17.28;50.49;101664.72;10427867;28;20286;-58
2024/01/23 17:10:40;;;;;;;9.73;4.07;;;;;;;17.25;49.65;101652.66;10433846;28;20825;-58
2024/01/23 17:15:40;;;;;;;10.77;3.70;;;;;;;17.25;50.18;101645.44;10434516;28;20295;-58
2024/01/23 17:20:41;;;;;;;13.80;4.53;;;;;;;17.23;50.62;101630.69;10421216;28;20706;-56
2024/01/23 17:25:43;;;;;;;18.70;3.90;;;;;;;17.40;55.19;101617.84;10412071;28;20308;-54
2024/01/23 17:30:43;;;;;;;13.52;4.60;;;;;;;17.59;55.41;101594.00;10429041;28;20275;-56
2024/01/23 17:35:45;;;;;;;15.80;3.60;;;;;;;17.59;54.09;101579.81;10417096;28;20025;-53
2024/01/23 17:40:46;;;;;;;20.20;3.90;;;;;;;17.59;54.01;101559.16;10440083;28;20056;-53
2024/01/23 17:45:46;;;;;;;10.98;3.40;;;;;;;17.48;54.49;101549.50;10422143;28;20056;-53
2024/01/23 17:50:46;;;;;;;11.82;3.78;;;;;;;17.45;54.82;101534.75;10412222;28;20026;-54
2024/01/23 17:55:47;;;;;;;17.13;4.57;;;;;;;17.46;54.68;101522.16;10413471;28;20129;-54
2024/01/23 18:00:47;;;;;;;10.70;3.40;;;;;;;17.43;53.94;101523.50;10412756;28;20025;-55
2024/01/23 18:05:47;;;;;;;15.47;4.00;;;;;;;17.44;54.62;101486.78;10412963;28;20280;-55
2024/01/23 18:10:47;;;;;;;12.13;4.27;;;;;;;17.38;54.90;101488.63;10431287;28;20291;-56
2024/01/23 18:15:48;;;;;;;11.63;3.80;;;;;;;17.36;54.33;101493.47;10420116;28;20381;-56
2024/01/23 18:20:48;;;;;;;10.77;2.47;;;;;;;17.27;53.37;101508.47;10414659;28;20288;-56
2024/01/23 18:25:49;;;;;;;9.60;2.70;;;;;;;17.25;53.80;101506.06;10411441;28;20280;-56
2024/01/23 18:30:50;;;;;;;12.65;3.08;;;;;;;17.18;53.74;101468.00;10442803;28;20377;-56
2024/01/23 18:35:51;;;;;;;11.98;3.50;;;;;;;17.17;54.26;101495.06;10421260;28;20033;-56
2024/01/23 18:40:52;;;;;;;7.95;2.30;;;;;;;17.15;53.92;101471.19;10409881;28;20428;-55
2024/01/23 18:45:52;;;;;;;9.17;2.50;;;;;;;17.16;53.14;101474.69;10413451;28;20021;-56
2024/01/23 18:50:52;;;;;;;9.30;2.90;;;;;;;17.15;53.37;101479.25;10410873;28;20264;-55
2024/01/23 18:55:53;;;;;;;5.50;2.00;;;;;;;17.17;53.46;101442.28;10410462;28;20284;-54
2024/01/23 19:00:53;;;;;;;12.03;2.67;;;;;;;17.18;52.97;101438.53;10415508;28;20319;-56
2024/01/23 19:05:56;;;;;;;9.03;2.73;;;;;;;17.24;53.57;101424.03;10426367;28;20294;-56
2024/01/23 19:10:57;;;;;;;9.45;2.40;;;;;;;17.25;52.92;101406.88;10430993;28;20353;-55
2024/01/23 19:15:57;;;;;;;9.40;2.67;;;;;;;17.26;53.97;101386.25;10408831;28;20070;-56
2024/01/23 19:20:58;;;;;;;8.80;2.65;;;;;;;17.31;54.00;101383.56;10417163;28;20370;-55
2024/01/23 19:25:58;;;;;;;7.22;2.65;;;;;;;17.40;52.94;101375.75;10451005;28;20035;-55
2024/01/23 19:30:58;;;;;;;5.57;2.10;;;;;;;17.38;53.89;101368.00;10461935;28;20078;-56
2024/01/23 19:35:59;;;;;;;7.50;2.65;;;;;;;17.38;53.13;101357.28;10411078;28;20674;-56
2024/01/23 19:40:59;;;;;;;14.13;3.35;;;;;;;17.33;53.16;101321.66;10431788;28;20554;-55
2024/01/23 19:45:59;;;;;;;6.97;2.97;;;;;;;17.37;54.75;101346.81;10442416;28;20025;-54
2024/01/23 19:51:00;;;;;;;10.67;2.90;;;;;;;17.37;54.60;101344.94;10419114;28;20643;-55
2024/01/23 19:56:00;;;;;;;7.38;2.70;;;;;;;17.36;53.57;101332.63;10426885;28;20279;-55
2024/01/23 20:01:00;;;;;;;5.47;2.15;;;;;;;17.39;54.88;101334.75;10423040;28;20060;-55
2024/01/23 20:06:01;;;;;;;6.10;2.58;;;;;;;17.39;53.53;101326.72;10421793;28;20674;-55
2024/01/23 20:11:01;;;;;;;6.97;1.95;;;;;;;17.40;54.97;101332.88;10423796;28;20046;-56
2024/01/23 20:16:02;;;;;;;7.00;2.50;;;;;;;17.37;53.68;101320.03;10408637;28;20408;-56
2024/01/23 20:21:02;;;;;;;6.03;2.15;;;;;;;17.35;53.43;101279.28;10408537;28;20036;-56
2024/01/23 20:26:03;;;;;;;10.10;2.47;;;;;;;17.32;53.89;101271.81;10421931;28;20021;-55
2024/01/23 20:31:04;;;;;;;5.93;2.00;;;;;;;17.35;54.77;101276.63;10432614;28;20017;-55
2024/01/23 20:36:04;;;;;;;7.10;1.67;;;;;;;17.36;54.48;101262.94;10418740;28;20030;-55
2024/01/23 20:41:05;;;;;;;5.72;2.28;;;;;;;17.33;53.75;101258.13;10408523;28;20765;-56
2024/01/23 20:46:05;;;;;;;7.20;2.13;;;;;;;17.33;54.02;101268.03;10407990;28;20029;-55
2024/01/23 20:51:05;;;;;;;6.53;1.80;;;;;;;17.29;54.37;101277.72;10409720;28;20075;-56
2024/01/23 20:56:06;;;;;;;5.90;1.55;;;;;;;17.32;54.78;101256.53;10439425;28;20080;-56
2024/01/23 21:01:06;;;;;;;5.20;1.75;;;;;;;17.30;54.33;101258.69;10434178;28;20021;-56
2024/01/23 21:06:07;;;;;;;3.87;1.30;;;;;;;17.28;53.34;101234.00;10427443;28;20520;-56
2024/01/23 21:11:07;;;;;;;6.57;1.83;;;;;;;17.32;53.65;101245.00;10423908;28;20291;-56
2024/01/23 21:16:08;;;;;;;2.63;1.30;;;;;;;17.31;54.03;101238.03;10427257;28;20033;-55
2024/01/23 21:21:08;;;;;;;4.32;1.67;;;;;;;17.30;54.51;101231.88;10426122;28;20095;-56
2024/01/23 21:26:09;;;;;;;6.07;1.50;;;;;;;17.34;52.88;101214.16;10427121;28;20521;-56
2024/01/23 21:31:09;;;;;;;4.60;1.53;;;;;;;17.31;53.64;101195.97;10467656;28;20024;-55
2024/01/23 21:36:10;;;;;;;3.15;1.05;;;;;;;17.33;54.04;101199.16;10414083;28;20314;-56
2024/01/23 21:41:10;;;;;;;3.50;1.05;;;;;;;17.35;54.02;101190.84;10413409;28;20037;-55
2024/01/23 21:46:11;;;;;;;3.47;1.77;;;;;;;17.32;53.15;101194.88;10414029;28;20025;-55
2024/01/23 21:51:11;;;;;;;6.07;1.52;;;;;;;17.32;52.97;101200.25;10413125;28;20369;-55
2024/01/23 21:56:11;;;;;;;3.97;1.13;;;;;;;17.33;53.94;101190.31;10413519;28;20095;-55
2024/01/23 22:01:12;;;;;;;4.20;1.38;;;;;;;17.34;53.40;101168.59;10412858;28;20291;-55
2024/01/23 22:06:12;;;;;;;2.42;1.30;;;;;;;17.32;52.72;101165.41;10412980;28;20052;-55
2024/01/23 22:11:13;;;;;;;4.18;1.25;;;;;;;17.32;54.23;101164.59;10424715;28;20492;-55
2024/01/23 22:16:14;;;;;;;3.90;1.10;;;;;;;17.32;53.20;101162.72;10425921;28;20052;-54
2024/01/23 22:21:14;;;;;;;3.23;0.90;;;;;;;17.35;54.31;101153.31;10411649;28;20036;-56
2024/01/23 22:26:15;;;;;;;4.10;1.20;;;;;;;17.35;53.82;101175.56;10412110;28;20287;-55
2024/01/23 22:31:16;;;;;;;5.60;1.60;;;;;;;17.35;53.63;101142.59;10435870;28;20273;-56
2024/01/23 22:36:16;;;;;;;3.10;0.82;;;;;;;17.36;52.90;101155.72;10410689;28;20037;-55
2024/01/23 22:41:18;;;;;;;3.38;1.05;;;;;;;17.38;53.95;101163.47;10411382;28;20072;-53
2024/01/23 22:46:19;;;;;;;2.97;1.10;;;;;;;17.36;53.06;101150.34;10411300;28;20095;-55
2024/01/23 22:51:19;;;;;;;3.15;1.13;;;;;;;17.37;53.59;101130.50;10410966;28;20035;-54
2024/01/23 22:56:20;;;;;;;3.15;0.82;;;;;;;17.37;53.06;101121.66;10410819;28;20040;-56